sensor_id;sensor_type;location;lat;lon;timestamp;P1;durP1;ratioP1;P2;durP2;ratioP2
48935;SDS011;34745;52.276;10.528;2024-03-08T00:00:05;0.43;;;0.43;;
48935;SDS011;34745;52.276;10.528;2024-03-08T00:02:42;0.50;;;0.50;;
48935;SDS011;34745;52.276;10.528;2024-03-08T00:05:09;0.50;;;0.50;;
48935;SDS011;34745;52.276;10.528;2024-03-08T00:07:36;0.50;;;0.50;;
48935;SDS011;34745;52.276;10.528;2024-03-08T00:10:04;0.50;;;0.50;;
48935;SDS011;34745;52.276;10.528;2024-03-08T00:12:33;0.50;;;0.50;;
48935;SDS011;34745;52.276;10.528;2024-03-08T00:15:00;0.50;;;0.50;;
48935;SDS011;34745;52.276;10.528;2024-03-08T00:17:27;0.50;;;0.50;;
48935;SDS011;34745;52.276;10.528;2024-03-08T00:19:56;0.50;;;0.50;;
48935;SDS011;34745;52.276;10.528;2024-03-08T00:22:23;0.50;;;0.50;;
48935;SDS011;34745;52.276;10.528;2024-03-08T00:24:50;0.50;;;0.50;;
48935;SDS011;34745;52.276;10.528;2024-03-08T00:27:17;0.50;;;0.50;;
48935;SDS011;34745;52.276;10.528;2024-03-08T00:29:47;0.50;;;0.50;;
48935;SDS011;34745;52.276;10.528;2024-03-08T00:32:15;0.50;;;0.50;;
48935;SDS011;34745;52.276;10.528;2024-03-08T00:34:43;0.50;;;0.50;;
48935;SDS011;34745;52.276;10.528;2024-03-08T00:37:11;0.50;;;0.50;;
48935;SDS011;34745;52.276;10.528;2024-03-08T00:39:38;0.50;;;0.50;;
48935;SDS011;34745;52.276;10.528;2024-03-08T00:42:05;0.40;;;0.40;;
48935;SDS011;34745;52.276;10.528;2024-03-08T00:44:33;0.50;;;0.50;;
48935;SDS011;34745;52.276;10.528;2024-03-08T00:47:00;0.40;;;0.40;;
48935;SDS011;34745;52.276;10.528;2024-03-08T00:49:27;0.50;;;0.50;;
48935;SDS011;34745;52.276;10.528;2024-03-08T00:51:54;0.50;;;0.50;;
48935;SDS011;34745;52.276;10.528;2024-03-08T00:54:22;0.40;;;0.40;;
48935;SDS011;34745;52.276;10.528;2024-03-08T00:56:49;0.40;;;0.40;;
48935;SDS011;34745;52.276;10.528;2024-03-08T00:59:16;0.50;;;0.50;;
48935;SDS011;34745;52.276;10.528;2024-03-08T01:01:44;0.40;;;0.40;;
48935;SDS011;34745;52.276;10.528;2024-03-08T01:04:11;0.50;;;0.50;;
48935;SDS011;34745;52.276;10.528;2024-03-08T01:06:38;0.50;;;0.50;;
48935;SDS011;34745;52.276;10.528;2024-03-08T01:09:05;0.50;;;0.50;;
48935;SDS011;34745;52.276;10.528;2024-03-08T01:11:35;0.50;;;0.50;;
48935;SDS011;34745;52.276;10.528;2024-03-08T01:14:02;0.43;;;0.43;;
48935;SDS011;34745;52.276;10.528;2024-03-08T01:16:29;0.50;;;0.50;;
48935;SDS011;34745;52.276;10.528;2024-03-08T01:18:56;0.50;;;0.50;;
48935;SDS011;34745;52.276;10.528;2024-03-08T01:21:23;0.40;;;0.40;;
48935;SDS011;34745;52.276;10.528;2024-03-08T01:23:50;0.40;;;0.40;;
48935;SDS011;34745;52.276;10.528;2024-03-08T01:26:17;0.50;;;0.50;;
48935;SDS011;34745;52.276;10.528;2024-03-08T01:28:45;0.40;;;0.40;;
48935;SDS011;34745;52.276;10.528;2024-03-08T01:31:13;0.50;;;0.50;;
48935;SDS011;34745;52.276;10.528;2024-03-08T01:33:40;0.50;;;0.50;;
48935;SDS011;34745;52.276;10.528;2024-03-08T01:36:07;0.50;;;0.50;;
48935;SDS011;34745;52.276;10.528;2024-03-08T01:38:34;0.50;;;0.50;;
48935;SDS011;34745;52.276;10.528;2024-03-08T01:41:03;0.40;;;0.40;;
48935;SDS011;34745;52.276;10.528;2024-03-08T01:43:30;0.50;;;0.50;;
48935;SDS011;34745;52.276;10.528;2024-03-08T01:45:59;0.40;;;0.40;;
48935;SDS011;34745;52.276;10.528;2024-03-08T01:48:26;0.50;;;0.50;;
48935;SDS011;34745;52.276;10.528;2024-03-08T01:50:55;0.50;;;0.50;;
48935;SDS011;34745;52.276;10.528;2024-03-08T01:53:24;0.50;;;0.50;;
48935;SDS011;34745;52.276;10.528;2024-03-08T01:55:54;0.50;;;0.50;;
48935;SDS011;34745;52.276;10.528;2024-03-08T01:58:24;0.50;;;0.50;;
48935;SDS011;34745;52.276;10.528;2024-03-08T02:00:54;0.50;;;0.50;;
48935;SDS011;34745;52.276;10.528;2024-03-08T02:03:24;0.43;;;0.43;;
48935;SDS011;34745;52.276;10.528;2024-03-08T02:05:51;0.50;;;0.50;;
48935;SDS011;34745;52.276;10.528;2024-03-08T02:08:19;0.50;;;0.50;;
48935;SDS011;34745;52.276;10.528;2024-03-08T02:10:49;0.50;;;0.50;;
48935;SDS011;34745;52.276;10.528;2024-03-08T02:13:17;0.50;;;0.50;;
48935;SDS011;34745;52.276;10.528;2024-03-08T02:15:52;0.40;;;0.40;;
48935;SDS011;34745;52.276;10.528;2024-03-08T02:18:20;0.50;;;0.50;;
48935;SDS011;34745;52.276;10.528;2024-03-08T02:20:49;0.40;;;0.40;;
48935;SDS011;34745;52.276;10.528;2024-03-08T02:23:16;0.50;;;0.50;;
48935;SDS011;34745;52.276;10.528;2024-03-08T02:25:43;0.50;;;0.50;;
48935;SDS011;34745;52.276;10.528;2024-03-08T02:28:11;0.40;;;0.40;;
48935;SDS011;34745;52.276;10.528;2024-03-08T02:30:38;0.50;;;0.50;;
48935;SDS011;34745;52.276;10.528;2024-03-08T02:33:06;0.50;;;0.50;;
48935;SDS011;34745;52.276;10.528;2024-03-08T02:35:33;0.40;;;0.40;;
48935;SDS011;34745;52.276;10.528;2024-03-08T02:38:02;0.50;;;0.50;;
48935;SDS011;34745;52.276;10.528;2024-03-08T02:40:30;0.40;;;0.40;;
48935;SDS011;34745;52.276;10.528;2024-03-08T02:42:57;0.40;;;0.40;;
48935;SDS011;34745;52.276;10.528;2024-03-08T02:45:24;0.50;;;0.50;;
48935;SDS011;34745;52.276;10.528;2024-03-08T02:47:51;0.40;;;0.40;;
48935;SDS011;34745;52.276;10.528;2024-03-08T02:50:19;0.40;;;0.40;;
48935;SDS011;34745;52.276;10.528;2024-03-08T02:52:46;0.50;;;0.50;;
48935;SDS011;34745;52.276;10.528;2024-03-08T02:55:14;0.40;;;0.40;;
48935;SDS011;34745;52.276;10.528;2024-03-08T02:57:43;0.50;;;0.50;;
48935;SDS011;34745;52.276;10.528;2024-03-08T03:00:10;0.50;;;0.50;;
48935;SDS011;34745;52.276;10.528;2024-03-08T03:02:39;0.50;;;0.50;;
48935;SDS011;34745;52.276;10.528;2024-03-08T03:05:07;0.50;;;0.50;;
48935;SDS011;34745;52.276;10.528;2024-03-08T03:07:36;0.50;;;0.50;;
48935;SDS011;34745;52.276;10.528;2024-03-08T03:10:04;0.50;;;0.50;;
48935;SDS011;34745;52.276;10.528;2024-03-08T03:12:34;0.43;;;0.43;;
48935;SDS011;34745;52.276;10.528;2024-03-08T03:15:02;0.40;;;0.40;;
48935;SDS011;34745;52.276;10.528;2024-03-08T03:17:29;0.40;;;0.40;;
48935;SDS011;34745;52.276;10.528;2024-03-08T03:19:56;0.40;;;0.40;;
48935;SDS011;34745;52.276;10.528;2024-03-08T03:22:23;0.50;;;0.50;;
48935;SDS011;34745;52.276;10.528;2024-03-08T03:24:52;0.50;;;0.50;;
48935;SDS011;34745;52.276;10.528;2024-03-08T03:27:19;0.50;;;0.50;;
48935;SDS011;34745;52.276;10.528;2024-03-08T03:29:48;0.47;;;0.47;;
48935;SDS011;34745;52.276;10.528;2024-03-08T03:32:16;0.40;;;0.40;;
48935;SDS011;34745;52.276;10.528;2024-03-08T03:34:45;0.50;;;0.50;;
48935;SDS011;34745;52.276;10.528;2024-03-08T03:37:12;0.50;;;0.50;;
48935;SDS011;34745;52.276;10.528;2024-03-08T03:39:39;0.40;;;0.40;;
48935;SDS011;34745;52.276;10.528;2024-03-08T03:42:16;0.50;;;0.50;;
48935;SDS011;34745;52.276;10.528;2024-03-08T03:44:44;0.40;;;0.40;;
48935;SDS011;34745;52.276;10.528;2024-03-08T03:47:12;0.50;;;0.50;;
48935;SDS011;34745;52.276;10.528;2024-03-08T03:49:40;0.50;;;0.50;;
48935;SDS011;34745;52.276;10.528;2024-03-08T03:52:08;0.50;;;0.50;;
48935;SDS011;34745;52.276;10.528;2024-03-08T03:54:35;0.50;;;0.50;;
48935;SDS011;34745;52.276;10.528;2024-03-08T03:57:02;0.50;;;0.50;;
48935;SDS011;34745;52.276;10.528;2024-03-08T03:59:30;0.40;;;0.40;;
48935;SDS011;34745;52.276;10.528;2024-03-08T04:01:58;0.40;;;0.40;;
48935;SDS011;34745;52.276;10.528;2024-03-08T04:04:26;0.50;;;0.50;;
48935;SDS011;34745;52.276;10.528;2024-03-08T04:06:53;0.50;;;0.50;;
48935;SDS011;34745;52.276;10.528;2024-03-08T04:09:20;0.50;;;0.50;;
48935;SDS011;34745;52.276;10.528;2024-03-08T04:11:48;0.50;;;0.50;;
48935;SDS011;34745;52.276;10.528;2024-03-08T04:14:19;0.50;;;0.50;;
48935;SDS011;34745;52.276;10.528;2024-03-08T04:16:46;0.40;;;0.40;;
48935;SDS011;34745;52.276;10.528;2024-03-08T04:19:14;0.50;;;0.50;;
48935;SDS011;34745;52.276;10.528;2024-03-08T04:21:43;0.50;;;0.50;;
48935;SDS011;34745;52.276;10.528;2024-03-08T04:24:10;0.47;;;0.47;;
48935;SDS011;34745;52.276;10.528;2024-03-08T04:26:37;0.50;;;0.50;;
48935;SDS011;34745;52.276;10.528;2024-03-08T04:29:04;0.50;;;0.50;;
48935;SDS011;34745;52.276;10.528;2024-03-08T04:31:32;0.50;;;0.50;;
48935;SDS011;34745;52.276;10.528;2024-03-08T04:33:59;0.50;;;0.50;;
48935;SDS011;34745;52.276;10.528;2024-03-08T04:36:26;0.50;;;0.50;;
48935;SDS011;34745;52.276;10.528;2024-03-08T04:38:56;0.50;;;0.50;;
48935;SDS011;34745;52.276;10.528;2024-03-08T04:41:23;0.50;;;0.50;;
48935;SDS011;34745;52.276;10.528;2024-03-08T04:43:50;0.50;;;0.50;;
48935;SDS011;34745;52.276;10.528;2024-03-08T04:46:18;0.50;;;0.50;;
48935;SDS011;34745;52.276;10.528;2024-03-08T04:48:45;0.50;;;0.50;;
48935;SDS011;34745;52.276;10.528;2024-03-08T04:51:13;0.57;;;0.57;;
48935;SDS011;34745;52.276;10.528;2024-03-08T04:53:42;0.50;;;0.50;;
48935;SDS011;34745;52.276;10.528;2024-03-08T04:56:10;0.43;;;0.43;;
48935;SDS011;34745;52.276;10.528;2024-03-08T04:58:37;0.50;;;0.50;;
48935;SDS011;34745;52.276;10.528;2024-03-08T05:01:04;0.50;;;0.50;;
48935;SDS011;34745;52.276;10.528;2024-03-08T05:03:32;0.50;;;0.50;;
48935;SDS011;34745;52.276;10.528;2024-03-08T05:05:59;0.60;;;0.60;;
48935;SDS011;34745;52.276;10.528;2024-03-08T05:08:26;0.50;;;0.50;;
48935;SDS011;34745;52.276;10.528;2024-03-08T05:10:53;0.50;;;0.50;;
48935;SDS011;34745;52.276;10.528;2024-03-08T05:13:22;0.50;;;0.50;;
48935;SDS011;34745;52.276;10.528;2024-03-08T05:15:50;0.50;;;0.50;;
48935;SDS011;34745;52.276;10.528;2024-03-08T05:18:17;0.50;;;0.50;;
48935;SDS011;34745;52.276;10.528;2024-03-08T05:20:44;0.50;;;0.50;;
48935;SDS011;34745;52.276;10.528;2024-03-08T05:23:12;0.50;;;0.50;;
48935;SDS011;34745;52.276;10.528;2024-03-08T05:25:39;0.50;;;0.50;;
48935;SDS011;34745;52.276;10.528;2024-03-08T05:28:08;0.50;;;0.50;;
48935;SDS011;34745;52.276;10.528;2024-03-08T05:30:36;0.50;;;0.50;;
48935;SDS011;34745;52.276;10.528;2024-03-08T05:33:05;0.50;;;0.50;;
48935;SDS011;34745;52.276;10.528;2024-03-08T05:35:31;0.50;;;0.50;;
48935;SDS011;34745;52.276;10.528;2024-03-08T05:37:59;0.50;;;0.50;;
48935;SDS011;34745;52.276;10.528;2024-03-08T05:40:26;0.50;;;0.50;;
48935;SDS011;34745;52.276;10.528;2024-03-08T05:42:53;0.50;;;0.50;;
48935;SDS011;34745;52.276;10.528;2024-03-08T05:45:20;0.50;;;0.50;;
48935;SDS011;34745;52.276;10.528;2024-03-08T05:47:49;0.50;;;0.50;;
48935;SDS011;34745;52.276;10.528;2024-03-08T05:50:16;0.50;;;0.50;;
48935;SDS011;34745;52.276;10.528;2024-03-08T05:52:43;0.50;;;0.50;;
48935;SDS011;34745;52.276;10.528;2024-03-08T05:55:09;0.50;;;0.50;;
48935;SDS011;34745;52.276;10.528;2024-03-08T05:57:37;0.40;;;0.40;;
48935;SDS011;34745;52.276;10.528;2024-03-08T06:00:06;0.50;;;0.50;;
48935;SDS011;34745;52.276;10.528;2024-03-08T06:02:33;0.50;;;0.50;;
48935;SDS011;34745;52.276;10.528;2024-03-08T06:05:02;0.50;;;0.50;;
48935;SDS011;34745;52.276;10.528;2024-03-08T06:07:29;0.50;;;0.50;;
48935;SDS011;34745;52.276;10.528;2024-03-08T06:09:56;0.50;;;0.50;;
48935;SDS011;34745;52.276;10.528;2024-03-08T06:12:23;0.60;;;0.60;;
48935;SDS011;34745;52.276;10.528;2024-03-08T06:14:55;0.50;;;0.50;;
48935;SDS011;34745;52.276;10.528;2024-03-08T06:17:22;0.50;;;0.50;;
48935;SDS011;34745;52.276;10.528;2024-03-08T06:19:52;0.50;;;0.50;;
48935;SDS011;34745;52.276;10.528;2024-03-08T06:22:20;0.50;;;0.50;;
48935;SDS011;34745;52.276;10.528;2024-03-08T06:24:47;0.50;;;0.50;;
48935;SDS011;34745;52.276;10.528;2024-03-08T06:27:14;0.50;;;0.50;;
48935;SDS011;34745;52.276;10.528;2024-03-08T06:29:41;0.50;;;0.50;;
48935;SDS011;34745;52.276;10.528;2024-03-08T06:32:08;0.50;;;0.50;;
48935;SDS011;34745;52.276;10.528;2024-03-08T06:34:35;0.50;;;0.50;;
48935;SDS011;34745;52.276;10.528;2024-03-08T06:37:02;0.50;;;0.50;;
48935;SDS011;34745;52.276;10.528;2024-03-08T06:39:30;0.50;;;0.50;;
48935;SDS011;34745;52.276;10.528;2024-03-08T06:41:58;0.50;;;0.50;;
48935;SDS011;34745;52.276;10.528;2024-03-08T06:44:25;0.50;;;0.50;;
48935;SDS011;34745;52.276;10.528;2024-03-08T06:46:52;0.50;;;0.50;;
48935;SDS011;34745;52.276;10.528;2024-03-08T06:49:22;0.50;;;0.50;;
48935;SDS011;34745;52.276;10.528;2024-03-08T06:51:49;0.50;;;0.50;;
48935;SDS011;34745;52.276;10.528;2024-03-08T06:54:16;0.40;;;0.40;;
48935;SDS011;34745;52.276;10.528;2024-03-08T06:56:44;0.50;;;0.50;;
48935;SDS011;34745;52.276;10.528;2024-03-08T06:59:11;0.50;;;0.50;;
48935;SDS011;34745;52.276;10.528;2024-03-08T07:01:39;0.50;;;0.50;;
48935;SDS011;34745;52.276;10.528;2024-03-08T07:04:06;0.50;;;0.50;;
48935;SDS011;34745;52.276;10.528;2024-03-08T07:06:34;0.50;;;0.50;;
48935;SDS011;34745;52.276;10.528;2024-03-08T07:09:01;0.50;;;0.50;;
48935;SDS011;34745;52.276;10.528;2024-03-08T07:11:28;0.50;;;0.50;;
48935;SDS011;34745;52.276;10.528;2024-03-08T07:13:57;0.50;;;0.50;;
48935;SDS011;34745;52.276;10.528;2024-03-08T07:16:24;0.50;;;0.50;;
48935;SDS011;34745;52.276;10.528;2024-03-08T07:18:53;0.50;;;0.50;;
48935;SDS011;34745;52.276;10.528;2024-03-08T07:21:20;0.50;;;0.50;;
48935;SDS011;34745;52.276;10.528;2024-03-08T07:23:47;0.50;;;0.50;;
48935;SDS011;34745;52.276;10.528;2024-03-08T07:26:36;0.50;;;0.50;;
48935;SDS011;34745;52.276;10.528;2024-03-08T07:29:06;0.50;;;0.50;;
48935;SDS011;34745;52.276;10.528;2024-03-08T07:31:34;0.50;;;0.50;;
48935;SDS011;34745;52.276;10.528;2024-03-08T07:34:11;0.50;;;0.50;;
48935;SDS011;34745;52.276;10.528;2024-03-08T07:36:38;0.50;;;0.50;;
48935;SDS011;34745;52.276;10.528;2024-03-08T07:39:06;0.50;;;0.50;;
48935;SDS011;34745;52.276;10.528;2024-03-08T07:41:38;0.50;;;0.50;;
48935;SDS011;34745;52.276;10.528;2024-03-08T07:44:08;0.50;;;0.50;;
48935;SDS011;34745;52.276;10.528;2024-03-08T07:46:35;0.40;;;0.40;;
48935;SDS011;34745;52.276;10.528;2024-03-08T07:49:03;0.50;;;0.50;;
48935;SDS011;34745;52.276;10.528;2024-03-08T07:51:30;0.40;;;0.40;;
48935;SDS011;34745;52.276;10.528;2024-03-08T07:53:57;0.50;;;0.50;;
48935;SDS011;34745;52.276;10.528;2024-03-08T07:56:26;0.50;;;0.50;;
48935;SDS011;34745;52.276;10.528;2024-03-08T07:58:53;0.50;;;0.50;;
48935;SDS011;34745;52.276;10.528;2024-03-08T08:01:22;0.50;;;0.50;;
48935;SDS011;34745;52.276;10.528;2024-03-08T08:03:50;0.40;;;0.40;;
48935;SDS011;34745;52.276;10.528;2024-03-08T08:06:17;0.50;;;0.50;;
48935;SDS011;34745;52.276;10.528;2024-03-08T08:08:44;0.50;;;0.50;;
48935;SDS011;34745;52.276;10.528;2024-03-08T08:11:11;0.50;;;0.50;;
48935;SDS011;34745;52.276;10.528;2024-03-08T08:13:39;0.50;;;0.50;;
48935;SDS011;34745;52.276;10.528;2024-03-08T08:16:06;0.50;;;0.50;;
48935;SDS011;34745;52.276;10.528;2024-03-08T08:18:34;0.40;;;0.40;;
48935;SDS011;34745;52.276;10.528;2024-03-08T08:21:02;0.50;;;0.50;;
48935;SDS011;34745;52.276;10.528;2024-03-08T08:23:32;0.40;;;0.40;;
48935;SDS011;34745;52.276;10.528;2024-03-08T08:25:59;0.40;;;0.40;;
48935;SDS011;34745;52.276;10.528;2024-03-08T08:28:28;0.40;;;0.40;;
48935;SDS011;34745;52.276;10.528;2024-03-08T08:30:55;0.40;;;0.40;;
48935;SDS011;34745;52.276;10.528;2024-03-08T08:33:22;0.50;;;0.50;;
48935;SDS011;34745;52.276;10.528;2024-03-08T08:35:53;0.40;;;0.40;;
48935;SDS011;34745;52.276;10.528;2024-03-08T08:38:20;0.40;;;0.40;;
48935;SDS011;34745;52.276;10.528;2024-03-08T08:40:48;0.50;;;0.50;;
48935;SDS011;34745;52.276;10.528;2024-03-08T08:43:15;0.40;;;0.40;;
48935;SDS011;34745;52.276;10.528;2024-03-08T08:45:44;0.40;;;0.40;;
48935;SDS011;34745;52.276;10.528;2024-03-08T08:48:13;0.40;;;0.40;;
48935;SDS011;34745;52.276;10.528;2024-03-08T08:50:42;0.40;;;0.40;;
48935;SDS011;34745;52.276;10.528;2024-03-08T08:53:12;0.40;;;0.40;;
48935;SDS011;34745;52.276;10.528;2024-03-08T08:55:41;0.50;;;0.50;;
48935;SDS011;34745;52.276;10.528;2024-03-08T08:58:08;0.40;;;0.40;;
48935;SDS011;34745;52.276;10.528;2024-03-08T09:00:35;0.40;;;0.40;;
48935;SDS011;34745;52.276;10.528;2024-03-08T09:03:02;0.40;;;0.40;;
48935;SDS011;34745;52.276;10.528;2024-03-08T09:05:30;0.40;;;0.40;;
48935;SDS011;34745;52.276;10.528;2024-03-08T09:08:02;0.40;;;0.40;;
48935;SDS011;34745;52.276;10.528;2024-03-08T09:10:31;0.40;;;0.40;;
48935;SDS011;34745;52.276;10.528;2024-03-08T09:13:00;0.40;;;0.40;;
48935;SDS011;34745;52.276;10.528;2024-03-08T09:15:31;0.50;;;0.50;;
48935;SDS011;34745;52.276;10.528;2024-03-08T09:17:59;0.50;;;0.50;;
48935;SDS011;34745;52.276;10.528;2024-03-08T09:20:27;0.50;;;0.50;;
48935;SDS011;34745;52.276;10.528;2024-03-08T09:22:55;0.50;;;0.50;;
48935;SDS011;34745;52.276;10.528;2024-03-08T09:25:23;0.50;;;0.50;;
48935;SDS011;34745;52.276;10.528;2024-03-08T09:27:51;0.40;;;0.40;;
48935;SDS011;34745;52.276;10.528;2024-03-08T09:30:18;0.40;;;0.40;;
48935;SDS011;34745;52.276;10.528;2024-03-08T09:32:47;0.40;;;0.40;;
48935;SDS011;34745;52.276;10.528;2024-03-08T09:35:18;0.50;;;0.50;;
48935;SDS011;34745;52.276;10.528;2024-03-08T09:37:46;0.40;;;0.40;;
48935;SDS011;34745;52.276;10.528;2024-03-08T09:40:18;0.50;;;0.50;;
48935;SDS011;34745;52.276;10.528;2024-03-08T09:42:47;0.40;;;0.40;;
48935;SDS011;34745;52.276;10.528;2024-03-08T09:45:16;0.40;;;0.40;;
48935;SDS011;34745;52.276;10.528;2024-03-08T09:47:44;0.40;;;0.40;;
48935;SDS011;34745;52.276;10.528;2024-03-08T09:50:11;0.40;;;0.40;;
48935;SDS011;34745;52.276;10.528;2024-03-08T09:52:42;0.40;;;0.40;;
48935;SDS011;34745;52.276;10.528;2024-03-08T09:55:12;0.50;;;0.50;;
48935;SDS011;34745;52.276;10.528;2024-03-08T09:57:40;0.40;;;0.40;;
48935;SDS011;34745;52.276;10.528;2024-03-08T10:00:09;0.40;;;0.40;;
48935;SDS011;34745;52.276;10.528;2024-03-08T10:02:52;0.40;;;0.40;;
48935;SDS011;34745;52.276;10.528;2024-03-08T10:05:20;0.40;;;0.40;;
48935;SDS011;34745;52.276;10.528;2024-03-08T10:07:49;0.40;;;0.40;;
48935;SDS011;34745;52.276;10.528;2024-03-08T10:10:16;0.43;;;0.43;;
48935;SDS011;34745;52.276;10.528;2024-03-08T10:12:44;0.40;;;0.40;;
48935;SDS011;34745;52.276;10.528;2024-03-08T10:15:12;0.40;;;0.40;;
48935;SDS011;34745;52.276;10.528;2024-03-08T10:17:39;0.40;;;0.40;;
48935;SDS011;34745;52.276;10.528;2024-03-08T10:20:13;0.40;;;0.40;;
48935;SDS011;34745;52.276;10.528;2024-03-08T10:22:41;0.40;;;0.40;;
48935;SDS011;34745;52.276;10.528;2024-03-08T10:25:22;0.40;;;0.40;;
48935;SDS011;34745;52.276;10.528;2024-03-08T10:27:50;0.40;;;0.40;;
48935;SDS011;34745;52.276;10.528;2024-03-08T10:30:17;0.50;;;0.50;;
48935;SDS011;34745;52.276;10.528;2024-03-08T10:32:48;0.40;;;0.40;;
48935;SDS011;34745;52.276;10.528;2024-03-08T10:35:17;0.40;;;0.40;;
48935;SDS011;34745;52.276;10.528;2024-03-08T10:37:45;0.40;;;0.40;;
48935;SDS011;34745;52.276;10.528;2024-03-08T10:40:15;0.40;;;0.40;;
48935;SDS011;34745;52.276;10.528;2024-03-08T10:42:47;0.40;;;0.40;;
48935;SDS011;34745;52.276;10.528;2024-03-08T10:45:20;0.40;;;0.40;;
48935;SDS011;34745;52.276;10.528;2024-03-08T10:48:01;0.40;;;0.40;;
48935;SDS011;34745;52.276;10.528;2024-03-08T10:50:37;0.40;;;0.40;;
48935;SDS011;34745;52.276;10.528;2024-03-08T10:53:05;0.40;;;0.40;;
48935;SDS011;34745;52.276;10.528;2024-03-08T10:55:33;0.40;;;0.40;;
48935;SDS011;34745;52.276;10.528;2024-03-08T10:58:03;0.40;;;0.40;;
48935;SDS011;34745;52.276;10.528;2024-03-08T11:00:31;0.40;;;0.40;;
48935;SDS011;34745;52.276;10.528;2024-03-08T11:02:58;0.40;;;0.40;;
48935;SDS011;34745;52.276;10.528;2024-03-08T11:05:36;0.50;;;0.50;;
48935;SDS011;34745;52.276;10.528;2024-03-08T11:08:16;0.40;;;0.40;;
48935;SDS011;34745;52.276;10.528;2024-03-08T11:10:48;0.40;;;0.40;;
48935;SDS011;34745;52.276;10.528;2024-03-08T11:13:32;0.40;;;0.40;;
48935;SDS011;34745;52.276;10.528;2024-03-08T11:16:01;0.40;;;0.40;;
48935;SDS011;34745;52.276;10.528;2024-03-08T11:18:32;0.40;;;0.40;;
48935;SDS011;34745;52.276;10.528;2024-03-08T11:21:03;0.40;;;0.40;;
48935;SDS011;34745;52.276;10.528;2024-03-08T11:23:38;0.40;;;0.40;;
48935;SDS011;34745;52.276;10.528;2024-03-08T11:26:17;0.40;;;0.40;;
48935;SDS011;34745;52.276;10.528;2024-03-08T11:28:44;0.40;;;0.40;;
48935;SDS011;34745;52.276;10.528;2024-03-08T11:31:22;0.40;;;0.40;;
48935;SDS011;34745;52.276;10.528;2024-03-08T11:33:51;0.40;;;0.40;;
48935;SDS011;34745;52.276;10.528;2024-03-08T11:36:22;0.40;;;0.40;;
48935;SDS011;34745;52.276;10.528;2024-03-08T11:38:51;0.40;;;0.40;;
48935;SDS011;34745;52.276;10.528;2024-03-08T11:41:20;0.40;;;0.40;;
48935;SDS011;34745;52.276;10.528;2024-03-08T11:43:49;0.40;;;0.40;;
48935;SDS011;34745;52.276;10.528;2024-03-08T11:46:27;0.40;;;0.40;;
48935;SDS011;34745;52.276;10.528;2024-03-08T11:48:54;0.40;;;0.40;;
48935;SDS011;34745;52.276;10.528;2024-03-08T11:51:26;0.40;;;0.40;;
48935;SDS011;34745;52.276;10.528;2024-03-08T11:53:53;0.40;;;0.40;;
48935;SDS011;34745;52.276;10.528;2024-03-08T11:56:20;0.40;;;0.40;;
48935;SDS011;34745;52.276;10.528;2024-03-08T11:58:54;0.40;;;0.40;;
48935;SDS011;34745;52.276;10.528;2024-03-08T12:01:25;0.40;;;0.40;;
48935;SDS011;34745;52.276;10.528;2024-03-08T12:03:52;0.40;;;0.40;;
48935;SDS011;34745;52.276;10.528;2024-03-08T12:06:20;0.40;;;0.40;;
48935;SDS011;34745;52.276;10.528;2024-03-08T12:08:48;0.40;;;0.40;;
48935;SDS011;34745;52.276;10.528;2024-03-08T12:11:17;0.40;;;0.40;;
48935;SDS011;34745;52.276;10.528;2024-03-08T12:13:50;0.40;;;0.40;;
48935;SDS011;34745;52.276;10.528;2024-03-08T12:16:18;0.40;;;0.40;;
48935;SDS011;34745;52.276;10.528;2024-03-08T12:18:50;0.40;;;0.40;;
48935;SDS011;34745;52.276;10.528;2024-03-08T12:21:20;0.40;;;0.40;;
48935;SDS011;34745;52.276;10.528;2024-03-08T12:24:02;0.40;;;0.40;;
48935;SDS011;34745;52.276;10.528;2024-03-08T12:26:30;0.40;;;0.40;;
48935;SDS011;34745;52.276;10.528;2024-03-08T12:29:14;0.40;;;0.40;;
48935;SDS011;34745;52.276;10.528;2024-03-08T12:31:47;0.30;;;0.30;;
48935;SDS011;34745;52.276;10.528;2024-03-08T12:34:18;0.40;;;0.40;;
48935;SDS011;34745;52.276;10.528;2024-03-08T12:36:46;0.30;;;0.30;;
48935;SDS011;34745;52.276;10.528;2024-03-08T12:39:17;0.40;;;0.40;;
48935;SDS011;34745;52.276;10.528;2024-03-08T12:41:48;0.40;;;0.40;;
48935;SDS011;34745;52.276;10.528;2024-03-08T12:44:18;0.40;;;0.40;;
48935;SDS011;34745;52.276;10.528;2024-03-08T12:46:48;0.30;;;0.30;;
48935;SDS011;34745;52.276;10.528;2024-03-08T12:49:18;0.30;;;0.30;;
48935;SDS011;34745;52.276;10.528;2024-03-08T12:51:49;0.40;;;0.40;;
48935;SDS011;34745;52.276;10.528;2024-03-08T12:54:18;0.40;;;0.40;;
48935;SDS011;34745;52.276;10.528;2024-03-08T12:56:49;0.30;;;0.30;;
48935;SDS011;34745;52.276;10.528;2024-03-08T12:59:20;0.30;;;0.30;;
48935;SDS011;34745;52.276;10.528;2024-03-08T13:01:48;0.30;;;0.30;;
48935;SDS011;34745;52.276;10.528;2024-03-08T13:04:17;0.30;;;0.30;;
48935;SDS011;34745;52.276;10.528;2024-03-08T13:06:45;0.30;;;0.30;;
48935;SDS011;34745;52.276;10.528;2024-03-08T13:09:21;0.30;;;0.30;;
48935;SDS011;34745;52.276;10.528;2024-03-08T13:11:49;0.30;;;0.30;;
48935;SDS011;34745;52.276;10.528;2024-03-08T13:14:16;0.30;;;0.30;;
48935;SDS011;34745;52.276;10.528;2024-03-08T13:16:43;0.40;;;0.40;;
48935;SDS011;34745;52.276;10.528;2024-03-08T13:19:15;0.30;;;0.30;;
48935;SDS011;34745;52.276;10.528;2024-03-08T13:21:43;0.30;;;0.30;;
48935;SDS011;34745;52.276;10.528;2024-03-08T13:24:16;0.30;;;0.30;;
48935;SDS011;34745;52.276;10.528;2024-03-08T13:26:46;0.30;;;0.30;;
48935;SDS011;34745;52.276;10.528;2024-03-08T13:29:13;0.40;;;0.40;;
48935;SDS011;34745;52.276;10.528;2024-03-08T13:31:41;0.30;;;0.30;;
48935;SDS011;34745;52.276;10.528;2024-03-08T13:34:08;0.30;;;0.30;;
48935;SDS011;34745;52.276;10.528;2024-03-08T13:36:38;0.40;;;0.40;;
48935;SDS011;34745;52.276;10.528;2024-03-08T13:39:11;0.30;;;0.30;;
48935;SDS011;34745;52.276;10.528;2024-03-08T13:41:49;0.30;;;0.30;;
48935;SDS011;34745;52.276;10.528;2024-03-08T13:44:15;0.30;;;0.30;;
48935;SDS011;34745;52.276;10.528;2024-03-08T13:46:44;0.30;;;0.30;;
48935;SDS011;34745;52.276;10.528;2024-03-08T13:49:18;0.30;;;0.30;;
48935;SDS011;34745;52.276;10.528;2024-03-08T13:51:45;0.40;;;0.40;;
48935;SDS011;34745;52.276;10.528;2024-03-08T13:54:12;0.30;;;0.30;;
48935;SDS011;34745;52.276;10.528;2024-03-08T13:56:40;0.37;;;0.37;;
48935;SDS011;34745;52.276;10.528;2024-03-08T13:59:11;0.30;;;0.30;;
48935;SDS011;34745;52.276;10.528;2024-03-08T14:01:39;0.30;;;0.30;;
48935;SDS011;34745;52.276;10.528;2024-03-08T14:04:06;0.30;;;0.30;;
48935;SDS011;34745;52.276;10.528;2024-03-08T14:06:35;0.30;;;0.30;;
48935;SDS011;34745;52.276;10.528;2024-03-08T14:09:02;0.30;;;0.30;;
48935;SDS011;34745;52.276;10.528;2024-03-08T14:11:29;0.30;;;0.30;;
48935;SDS011;34745;52.276;10.528;2024-03-08T14:13:56;0.30;;;0.30;;
48935;SDS011;34745;52.276;10.528;2024-03-08T14:16:25;0.40;;;0.40;;
48935;SDS011;34745;52.276;10.528;2024-03-08T14:18:52;0.30;;;0.30;;
48935;SDS011;34745;52.276;10.528;2024-03-08T14:21:19;0.30;;;0.30;;
48935;SDS011;34745;52.276;10.528;2024-03-08T14:23:46;0.30;;;0.30;;
48935;SDS011;34745;52.276;10.528;2024-03-08T14:26:15;0.30;;;0.30;;
48935;SDS011;34745;52.276;10.528;2024-03-08T14:28:42;0.30;;;0.30;;
48935;SDS011;34745;52.276;10.528;2024-03-08T14:31:11;0.30;;;0.30;;
48935;SDS011;34745;52.276;10.528;2024-03-08T14:33:40;0.30;;;0.30;;
48935;SDS011;34745;52.276;10.528;2024-03-08T14:36:09;0.30;;;0.30;;
48935;SDS011;34745;52.276;10.528;2024-03-08T14:38:40;0.30;;;0.30;;
48935;SDS011;34745;52.276;10.528;2024-03-08T14:41:07;0.30;;;0.30;;